Sedalia, Indiana
Current Conditions -  °F | °C
As of 1:15 AM on Monday 26 Jan 2015 (Local Time) from KGGP Reporting Station
Overcast Overcast  
Wind Chill: 16°   Ceiling: 4300
Heat Index: 23°   Visibility: 10mi
Dew Point: 19°   Wind: 6mph
Humidity: 86%   Direction: 40°NE
Pressure: 29.92"   Gusts: NA
Location:  40.42°N, 86.51°W
Report Text: KGGP 260615Z AUTO 04005KT 10SM SCT020 OVC043 M05/M07 A2992 RMK AO2
Loading
Personal Weather Stations






























Interactive Weather Map New forecast layout! Learn more

10-Day Weather Forecast

Advertisements
Track Severe Weather on mobile